Time;durP1;ratioP1;P1;durP2;ratioP2;P2;SDS_P1;SDS_P2;PMS_P1;PMS_P2;Temp;Humidity;BMP_temperature;BMP_pressure;BME280_temperature;BME280_humidity;BME280_pressure;Samples;Min_cycle;Max_cycle;Signal;HPM_P1;HPM_P2
2021/04/29 00:00:14;;;;;;;5.22;2.72;;;12.20;99.90;;;;;;5014162;28;20030;-74
2021/04/29 00:02:39;;;;;;;4.45;2.30;;;12.20;99.90;;;;;;5008060;28;20037;-74
2021/04/29 00:05:08;;;;;;;6.22;2.97;;;12.10;99.90;;;;;;5005386;28;20040;-74
2021/04/29 00:07:34;;;;;;;6.75;2.45;;;12.00;99.90;;;;;;5007211;28;20065;-74
2021/04/29 00:10:01;;;;;;;8.50;4.32;;;12.10;99.90;;;;;;5002724;28;20041;-74
2021/04/29 00:12:26;;;;;;;9.43;4.40;;;12.10;99.90;;;;;;5001719;28;20165;-74
2021/04/29 00:14:52;;;;;;;7.78;4.68;;;12.20;99.90;;;;;;5000517;28;20065;-74
2021/04/29 00:17:18;;;;;;;8.30;6.03;;;12.10;99.90;;;;;;4985436;28;20066;-74
2021/04/29 00:19:43;;;;;;;9.23;5.75;;;12.10;99.90;;;;;;5004964;28;20030;-74
2021/04/29 00:22:09;;;;;;;9.35;5.18;;;12.10;99.90;;;;;;5011318;28;20030;-74
2021/04/29 00:24:34;;;;;;;7.15;4.93;;;12.20;99.90;;;;;;5020530;28;20338;-74
2021/04/29 00:27:00;;;;;;;6.25;3.30;;;12.20;99.90;;;;;;5032909;28;20037;-74
2021/04/29 00:29:26;;;;;;;5.65;2.70;;;12.20;99.90;;;;;;5031761;28;20037;-74
2021/04/29 00:31:52;;;;;;;5.60;1.80;;;12.20;99.90;;;;;;5026456;28;20073;-74
2021/04/29 00:34:18;;;;;;;4.57;1.45;;;12.20;99.90;;;;;;5029012;28;20109;-74
2021/04/29 00:36:44;;;;;;;3.92;1.35;;;12.20;99.90;;;;;;5026694;28;20033;-74
2021/04/29 00:39:09;;;;;;;5.47;1.52;;;12.10;99.90;;;;;;5026325;28;20034;-74
2021/04/29 00:41:35;;;;;;;4.88;1.63;;;12.00;99.90;;;;;;5030498;28;20029;-74
2021/04/29 00:44:01;;;;;;;3.80;1.35;;;12.00;99.90;;;;;;5024919;28;20040;-74
2021/04/29 00:46:28;;;;;;;4.80;1.58;;;12.00;99.90;;;;;;5018762;28;20038;-74
2021/04/29 00:48:54;;;;;;;6.70;1.67;;;12.10;99.90;;;;;;5033541;28;20059;-74
2021/04/29 00:51:21;;;;;;;3.28;1.20;;;12.10;99.90;;;;;;5032200;28;20069;-74
2021/04/29 00:53:47;;;;;;;3.67;1.30;;;12.10;99.90;;;;;;5031174;28;20285;-74
2021/04/29 00:56:13;;;;;;;4.90;1.13;;;12.10;99.90;;;;;;5020367;28;20437;-74
2021/04/29 00:58:40;;;;;;;3.28;1.02;;;12.10;99.90;;;;;;5024444;28;20049;-74
2021/04/29 01:01:07;;;;;;;3.40;1.20;;;12.10;99.90;;;;;;5009039;28;20033;-74
2021/04/29 01:04:12;;;;;;;2.78;1.05;;;12.10;99.90;;;;;;5023271;28;20029;-74
2021/04/29 01:06:49;;;;;;;5.40;0.90;;;12.10;99.90;;;;;;4981881;28;20431;-74
2021/04/29 01:09:40;;;;;;;3.65;0.73;;;12.10;99.90;;;;;;5016198;28;20060;-74
2021/04/29 01:12:17;;;;;;;4.70;0.63;;;12.10;99.90;;;;;;5031830;28;20390;-74
2021/04/29 01:14:44;;;;;;;3.67;0.95;;;12.00;99.90;;;;;;5029823;28;20025;-74
2021/04/29 01:17:11;;;;;;;2.58;0.63;;;11.90;99.90;;;;;;5028606;28;20036;-74
2021/04/29 01:19:42;;;;;;;3.05;1.00;;;11.90;99.90;;;;;;5027855;28;20025;-74
2021/04/29 01:22:09;;;;;;;1.90;0.80;;;11.80;99.90;;;;;;5025204;28;20068;-74
2021/04/29 01:24:57;;;;;;;3.28;1.05;;;11.80;99.90;;;;;;5025571;28;20045;-74
2021/04/29 01:27:24;;;;;;;4.55;1.10;;;11.90;99.90;;;;;;5022696;28;20036;-74
2021/04/29 01:29:52;;;;;;;6.97;1.05;;;11.90;99.90;;;;;;5020641;28;20061;-74
2021/04/29 01:32:18;;;;;;;4.07;0.85;;;11.70;99.90;;;;;;5019121;28;20057;-74
2021/04/29 01:34:45;;;;;;;4.13;0.80;;;11.70;99.90;;;;;;5030281;28;20029;-74
2021/04/29 01:37:11;;;;;;;2.15;0.77;;;11.60;99.90;;;;;;5031678;28;20029;-74
2021/04/29 01:39:37;;;;;;;2.40;0.60;;;11.60;99.90;;;;;;5027063;28;20033;-74
2021/04/29 01:42:04;;;;;;;3.30;0.60;;;11.50;99.90;;;;;;5025750;28;20033;-74
2021/04/29 01:44:30;;;;;;;1.58;0.50;;;11.50;99.90;;;;;;5023756;28;20034;-74
2021/04/29 01:46:59;;;;;;;2.30;0.65;;;11.30;99.90;;;;;;5027332;28;20029;-74
2021/04/29 01:49:25;;;;;;;2.67;0.88;;;11.10;99.90;;;;;;5023774;28;20065;-73
2021/04/29 01:51:52;;;;;;;3.10;0.80;;;11.10;99.90;;;;;;5019628;28;20041;-74
2021/04/29 01:54:20;;;;;;;3.72;0.80;;;11.10;99.90;;;;;;5017734;28;20041;-74
2021/04/29 01:56:46;;;;;;;3.80;0.90;;;11.00;99.90;;;;;;5023436;28;20037;-74
2021/04/29 01:59:13;;;;;;;1.88;0.73;;;11.20;99.90;;;;;;5030121;28;20380;-74
2021/04/29 02:01:41;;;;;;;3.47;0.80;;;11.10;99.90;;;;;;5034320;28;20037;-74
2021/04/29 02:04:08;;;;;;;3.03;0.80;;;11.00;99.90;;;;;;5028938;28;20033;-73
2021/04/29 02:06:35;;;;;;;5.65;0.55;;;11.00;99.90;;;;;;5025677;28;20025;-74
2021/04/29 02:09:02;;;;;;;2.67;0.70;;;10.90;99.90;;;;;;5026487;28;20105;-73
2021/04/29 02:11:31;;;;;;;5.63;1.10;;;10.90;99.90;;;;;;5027228;28;20516;-74
2021/04/29 02:14:00;;;;;;;3.90;0.80;;;10.90;99.90;;;;;;5022751;28;20095;-74
2021/04/29 02:16:37;;;;;;;2.15;0.63;;;10.90;99.90;;;;;;5020576;28;20476;-74
2021/04/29 02:19:05;;;;;;;2.67;0.98;;;11.00;99.90;;;;;;5018978;28;20448;-74
2021/04/29 02:21:31;;;;;;;4.47;0.80;;;11.00;99.90;;;;;;5030237;28;20139;-74
2021/04/29 02:23:57;;;;;;;2.72;1.00;;;11.00;99.90;;;;;;5013057;28;20068;-74
2021/04/29 02:26:24;;;;;;;3.38;1.00;;;11.00;99.90;;;;;;5013782;28;20201;-74
2021/04/29 02:28:51;;;;;;;2.50;0.98;;;11.00;99.90;;;;;;5010871;28;20387;-74
2021/04/29 02:31:17;;;;;;;4.55;1.05;;;11.00;99.90;;;;;;5003267;28;20491;-74
2021/04/29 02:33:43;;;;;;;1.70;0.60;;;11.00;99.90;;;;;;5007186;28;20030;-74
2021/04/29 02:36:10;;;;;;;2.65;1.00;;;11.10;99.90;;;;;;5000984;28;20033;-73
2021/04/29 02:38:37;;;;;;;5.32;2.42;;;11.10;99.90;;;;;;5003796;28;20101;-74
2021/04/29 02:41:05;;;;;;;6.47;1.40;;;11.10;99.90;;;;;;5008086;28;20053;-74
2021/04/29 02:43:31;;;;;;;8.57;3.58;;;11.10;99.90;;;;;;4999384;28;20036;-74
2021/04/29 02:45:57;;;;;;;8.82;3.83;;;11.10;99.90;;;;;;5003887;28;20037;-74
2021/04/29 02:48:24;;;;;;;7.30;2.97;;;11.10;99.90;;;;;;5011954;28;20049;-74
2021/04/29 02:50:50;;;;;;;9.80;2.80;;;11.00;99.90;;;;;;4994668;28;20034;-74
2021/04/29 02:53:18;;;;;;;6.85;2.35;;;11.00;99.90;;;;;;5002461;28;20040;-74
2021/04/29 02:55:45;;;;;;;5.07;2.30;;;11.10;99.90;;;;;;5008197;28;20029;-74
2021/04/29 02:58:13;;;;;;;7.40;2.80;;;11.00;99.90;;;;;;5004068;28;20037;-74
2021/04/29 03:00:40;;;;;;;5.30;2.75;;;11.00;99.90;;;;;;5004444;28;20029;-74
2021/04/29 03:03:07;;;;;;;7.85;3.40;;;11.00;99.90;;;;;;5004853;28;20428;-74
2021/04/29 03:05:33;;;;;;;7.70;3.00;;;11.10;99.90;;;;;;5008114;28;20052;-74
2021/04/29 03:07:59;;;;;;;5.65;2.83;;;11.10;99.90;;;;;;4995413;28;20437;-74
2021/04/29 03:10:25;;;;;;;11.82;2.25;;;11.00;99.90;;;;;;4997736;28;20396;-74
2021/04/29 03:12:50;;;;;;;4.93;1.63;;;11.00;99.90;;;;;;5013319;28;20061;-74
2021/04/29 03:15:18;;;;;;;4.32;1.50;;;11.00;99.90;;;;;;5009717;28;20064;-74
2021/04/29 03:17:44;;;;;;;5.50;1.67;;;10.90;99.90;;;;;;5011351;28;20033;-74
2021/04/29 03:20:10;;;;;;;4.63;1.60;;;10.90;99.90;;;;;;5007222;28;20038;-74
2021/04/29 03:22:36;;;;;;;3.95;1.70;;;10.80;99.90;;;;;;5001460;28;20518;-74
2021/04/29 03:25:03;;;;;;;5.10;1.80;;;10.80;99.90;;;;;;5014352;28;20076;-74
2021/04/29 03:27:29;;;;;;;5.13;1.73;;;10.80;99.90;;;;;;5021801;28;20036;-74
2021/04/29 03:29:55;;;;;;;3.60;1.73;;;10.90;99.90;;;;;;5022132;28;20033;-74
2021/04/29 03:32:21;;;;;;;6.78;2.10;;;10.90;99.90;;;;;;5016461;28;20069;-74
2021/04/29 03:34:46;;;;;;;4.95;2.30;;;10.90;99.90;;;;;;5013457;28;20038;-74
2021/04/29 03:37:13;;;;;;;3.40;2.13;;;10.90;99.90;;;;;;5007039;28;20026;-73
2021/04/29 03:39:38;;;;;;;3.83;2.00;;;10.90;99.90;;;;;;5032534;28;20088;-73
2021/04/29 03:42:06;;;;;;;4.65;1.58;;;10.80;99.90;;;;;;5012206;28;20072;-74
2021/04/29 03:44:33;;;;;;;10.82;2.08;;;10.70;99.90;;;;;;5021480;28;20044;-74
2021/04/29 03:46:59;;;;;;;5.13;2.35;;;10.60;99.90;;;;;;5024926;28;20072;-74
2021/04/29 03:49:25;;;;;;;5.68;2.15;;;10.70;99.90;;;;;;5024610;28;20045;-74
2021/04/29 03:51:50;;;;;;;4.80;2.03;;;10.70;99.90;;;;;;5025309;28;20037;-74
2021/04/29 03:54:16;;;;;;;5.32;1.95;;;10.60;99.90;;;;;;5005104;28;20057;-74
2021/04/29 03:56:42;;;;;;;4.05;1.90;;;10.50;99.90;;;;;;5015108;28;20202;-74
2021/04/29 03:59:07;;;;;;;5.82;1.70;;;10.50;99.90;;;;;;5027667;28;20048;-74
2021/04/29 04:01:33;;;;;;;4.20;2.10;;;10.50;99.90;;;;;;5038044;28;20478;-74
2021/04/29 04:03:59;;;;;;;5.68;2.33;;;10.60;99.90;;;;;;5034400;28;20037;-73
2021/04/29 04:06:24;;;;;;;5.72;2.38;;;10.60;99.90;;;;;;5030370;28;20025;-74
2021/04/29 04:08:50;;;;;;;5.28;1.98;;;10.60;99.90;;;;;;5031038;28;20045;-74
2021/04/29 04:11:15;;;;;;;5.93;2.33;;;10.60;99.90;;;;;;5025730;28;20061;-74
2021/04/29 04:13:41;;;;;;;6.97;2.63;;;10.60;99.90;;;;;;5028109;28;20066;-74
2021/04/29 04:16:07;;;;;;;14.63;2.17;;;10.70;99.90;;;;;;5025046;28;20036;-73
2021/04/29 04:18:32;;;;;;;6.25;2.20;;;10.50;99.90;;;;;;5023587;28;20407;-74
2021/04/29 04:20:58;;;;;;;6.03;2.17;;;10.50;99.90;;;;;;5022436;28;20463;-74
2021/04/29 04:23:24;;;;;;;5.63;2.20;;;10.50;99.90;;;;;;5019552;28;20527;-74
2021/04/29 04:25:49;;;;;;;4.07;1.65;;;10.50;99.90;;;;;;5020915;28;20057;-74
2021/04/29 04:28:15;;;;;;;5.45;1.85;;;10.50;99.90;;;;;;5012486;28;20113;-74
2021/04/29 04:30:41;;;;;;;5.93;2.30;;;10.40;99.90;;;;;;5008123;28;20048;-74
2021/04/29 04:33:07;;;;;;;4.88;1.95;;;10.40;99.90;;;;;;5001907;28;20030;-74
2021/04/29 04:35:33;;;;;;;8.57;2.40;;;10.50;99.90;;;;;;5004210;28;20037;-74
2021/04/29 04:37:58;;;;;;;6.32;2.92;;;10.50;99.90;;;;;;5008510;28;20455;-74
2021/04/29 04:40:24;;;;;;;5.88;2.88;;;10.50;99.90;;;;;;5007022;28;20061;-74
2021/04/29 04:42:50;;;;;;;7.35;3.25;;;10.50;99.90;;;;;;5008512;28;20029;-74
2021/04/29 04:45:15;;;;;;;7.45;3.30;;;10.60;99.90;;;;;;4992831;28;20045;-74
2021/04/29 04:47:41;;;;;;;9.57;4.68;;;10.50;99.90;;;;;;5000374;28;20033;-74
2021/04/29 04:50:08;;;;;;;11.10;6.45;;;10.50;99.90;;;;;;4992025;28;20038;-74
2021/04/29 04:52:34;;;;;;;15.68;8.40;;;10.50;99.90;;;;;;5008428;28;20033;-74
2021/04/29 04:55:00;;;;;;;12.05;7.50;;;10.50;99.90;;;;;;5007502;28;20041;-74
2021/04/29 04:57:25;;;;;;;11.82;7.03;;;10.50;99.90;;;;;;5016567;28;20534;-74
2021/04/29 04:59:51;;;;;;;10.23;6.63;;;10.50;99.90;;;;;;5007446;28;20424;-74
2021/04/29 05:02:17;;;;;;;10.55;5.93;;;10.60;99.90;;;;;;5010017;28;20057;-74
2021/04/29 05:04:43;;;;;;;13.07;5.30;;;10.60;99.90;;;;;;5007181;28;20038;-74
2021/04/29 05:07:10;;;;;;;7.28;4.97;;;10.50;99.90;;;;;;5001034;28;20038;-74
2021/04/29 05:09:37;;;;;;;9.95;5.10;;;10.60;99.90;;;;;;5000913;28;20033;-74
2021/04/29 05:12:03;;;;;;;10.50;6.05;;;10.50;99.90;;;;;;5000776;28;20061;-74
2021/04/29 05:14:31;;;;;;;11.07;5.72;;;10.50;99.90;;;;;;5015101;28;20124;-74
2021/04/29 05:16:57;;;;;;;8.32;4.90;;;10.60;99.90;;;;;;5007710;28;20464;-75
2021/04/29 05:19:23;;;;;;;9.32;5.03;;;10.60;99.90;;;;;;5012120;28;20044;-74
2021/04/29 05:21:49;;;;;;;20.50;5.80;;;10.50;99.90;;;;;;5016081;28;20034;-74
2021/04/29 05:24:15;;;;;;;10.43;6.53;;;10.60;99.90;;;;;;5002056;28;20045;-74
2021/04/29 05:26:40;;;;;;;7.68;5.35;;;10.70;99.90;;;;;;5027177;28;20045;-74
2021/04/29 05:29:07;;;;;;;11.40;6.70;;;10.60;99.90;;;;;;5024956;28;20057;-74
2021/04/29 05:31:33;;;;;;;16.00;6.05;;;10.60;99.90;;;;;;5022720;28;20025;-74
2021/04/29 05:33:59;;;;;;;9.27;4.82;;;10.60;99.90;;;;;;5028505;28;20037;-74
2021/04/29 05:36:24;;;;;;;6.30;3.10;;;10.60;99.90;;;;;;5027384;28;20131;-74
2021/04/29 05:38:50;;;;;;;7.50;4.47;;;10.60;99.90;;;;;;5025292;28;20508;-74
2021/04/29 05:41:16;;;;;;;13.80;10.90;;;10.60;99.90;;;;;;5021252;28;20018;-73
2021/04/29 05:43:42;;;;;;;15.02;11.50;;;10.60;99.90;;;;;;5026779;28;20025;-74
2021/04/29 05:46:08;;;;;;;19.27;12.85;;;10.60;99.90;;;;;;5030331;28;20486;-74
2021/04/29 05:48:33;;;;;;;15.70;10.98;;;10.60;99.90;;;;;;5027164;28;20215;-74
2021/04/29 05:50:59;;;;;;;13.18;8.23;;;10.60;99.90;;;;;;5019133;28;20479;-74
2021/04/29 05:53:25;;;;;;;10.35;5.85;;;10.60;99.90;;;;;;5026692;28;20415;-74
2021/04/29 05:55:50;;;;;;;9.00;5.28;;;10.60;99.90;;;;;;5021312;28;20053;-73
2021/04/29 05:58:16;;;;;;;9.20;4.03;;;10.50;99.90;;;;;;5016485;28;20038;-74
2021/04/29 06:00:42;;;;;;;6.03;3.00;;;10.50;99.90;;;;;;5021999;28;20574;-73
2021/04/29 06:03:07;;;;;;;8.63;4.28;;;10.40;99.90;;;;;;5032081;28;20058;-74
2021/04/29 06:05:33;;;;;;;8.05;4.50;;;10.40;99.90;;;;;;5033541;28;20036;-74
2021/04/29 06:08:00;;;;;;;8.80;5.53;;;10.50;99.90;;;;;;5021976;28;20152;-74
2021/04/29 06:10:27;;;;;;;13.95;7.47;;;10.60;99.90;;;;;;5028643;28;20038;-74
2021/04/29 06:12:53;;;;;;;15.15;7.85;;;10.70;99.90;;;;;;5019908;28;20521;-74
2021/04/29 06:15:19;;;;;;;13.23;9.15;;;10.70;99.90;;;;;;5027187;28;20436;-74
2021/04/29 06:17:45;;;;;;;13.07;8.55;;;10.60;99.90;;;;;;5023025;28;20038;-74
2021/04/29 06:20:12;;;;;;;13.07;7.60;;;10.70;99.90;;;;;;5018589;28;20395;-74
2021/04/29 06:22:38;;;;;;;10.23;7.30;;;10.70;99.90;;;;;;5016943;28;20065;-74
2021/04/29 06:25:05;;;;;;;10.98;5.05;;;10.70;99.90;;;;;;5005034;28;20087;-74
2021/04/29 06:27:31;;;;;;;7.20;3.65;;;10.80;99.90;;;;;;5003317;28;20037;-74
2021/04/29 06:29:56;;;;;;;9.88;4.40;;;10.90;99.90;;;;;;5029675;28;20383;-74
2021/04/29 06:32:22;;;;;;;7.80;3.28;;;10.90;99.90;;;;;;5029688;28;20052;-74
2021/04/29 06:34:48;;;;;;;9.52;3.55;;;11.00;99.90;;;;;;5021935;28;20427;-74
2021/04/29 06:37:13;;;;;;;7.13;2.65;;;10.90;99.90;;;;;;5022474;28;20042;-74
2021/04/29 06:39:39;;;;;;;9.10;2.42;;;10.90;99.90;;;;;;5024138;28;20033;-74
2021/04/29 06:42:05;;;;;;;5.72;2.72;;;10.90;99.90;;;;;;5023241;28;20037;-74
2021/04/29 06:44:32;;;;;;;7.50;3.13;;;10.90;99.90;;;;;;5017458;28;20437;-74
2021/04/29 06:46:58;;;;;;;10.27;5.50;;;10.90;99.90;;;;;;5030148;28;20025;-74
2021/04/29 06:49:26;;;;;;;9.15;4.50;;;10.90;99.90;;;;;;5020679;28;20029;-74
2021/04/29 06:51:51;;;;;;;6.78;2.25;;;10.90;99.90;;;;;;5004484;28;20029;-74
2021/04/29 06:54:17;;;;;;;7.93;2.42;;;11.00;99.90;;;;;;5008087;28;20513;-74
2021/04/29 06:56:42;;;;;;;4.18;2.25;;;11.00;99.90;;;;;;5022532;28;20573;-74
2021/04/29 06:59:08;;;;;;;7.88;3.92;;;10.90;99.90;;;;;;5023903;28;20136;-74
2021/04/29 07:01:34;;;;;;;7.40;2.72;;;10.80;99.90;;;;;;5025303;28;20052;-74
2021/04/29 07:04:00;;;;;;;8.25;5.10;;;10.70;99.90;;;;;;5019963;28;20778;-73
2021/04/29 07:06:27;;;;;;;15.40;9.95;;;10.70;99.90;;;;;;5021740;28;20408;-73
2021/04/29 07:08:52;;;;;;;13.30;8.57;;;10.80;99.90;;;;;;5019515;28;20029;-74
2021/04/29 07:11:18;;;;;;;9.93;4.57;;;10.90;99.90;;;;;;5023180;28;20033;-74
2021/04/29 07:13:44;;;;;;;8.48;3.00;;;11.00;99.90;;;;;;5016000;28;20375;-73
2021/04/29 07:16:09;;;;;;;7.40;3.55;;;11.00;99.90;;;;;;5029401;28;20517;-74
2021/04/29 07:18:35;;;;;;;8.02;3.88;;;11.00;99.90;;;;;;5021594;28;20371;-74
2021/04/29 07:21:01;;;;;;;5.55;3.03;;;11.00;99.90;;;;;;5009502;28;20030;-74
2021/04/29 07:23:26;;;;;;;6.43;3.30;;;11.10;99.90;;;;;;5022066;28;20033;-74
2021/04/29 07:25:52;;;;;;;6.38;2.97;;;11.10;99.90;;;;;;5021854;28;20065;-74
2021/04/29 07:28:18;;;;;;;10.57;6.10;;;11.10;99.90;;;;;;5018961;28;20596;-74
2021/04/29 07:30:44;;;;;;;9.85;5.93;;;11.20;99.90;;;;;;5025614;28;20048;-74
2021/04/29 07:33:11;;;;;;;6.32;4.45;;;11.30;99.90;;;;;;5021070;28;20076;-74
2021/04/29 07:35:40;;;;;;;10.80;4.28;;;11.50;99.90;;;;;;5023933;28;20459;-74
2021/04/29 07:38:06;;;;;;;6.72;3.22;;;11.60;99.90;;;;;;5006497;28;20628;-74
2021/04/29 07:40:32;;;;;;;7.28;3.25;;;11.60;99.90;;;;;;5031856;28;20255;-74
2021/04/29 07:42:59;;;;;;;10.55;2.80;;;11.60;99.90;;;;;;5025638;28;20395;-73
2021/04/29 07:45:25;;;;;;;7.10;3.60;;;11.60;99.90;;;;;;5026845;28;20136;-74
2021/04/29 07:47:51;;;;;;;9.30;3.17;;;11.60;99.90;;;;;;5022250;28;20065;-73
2021/04/29 07:50:17;;;;;;;5.35;3.03;;;11.60;99.90;;;;;;5022327;28;20065;-73
2021/04/29 07:52:43;;;;;;;10.63;3.75;;;11.70;99.90;;;;;;5020384;28;20479;-74
2021/04/29 07:55:10;;;;;;;8.63;4.43;;;11.80;99.90;;;;;;5018489;28;20030;-74
2021/04/29 07:57:36;;;;;;;8.35;4.50;;;11.80;99.90;;;;;;5018824;28;20029;-73
2021/04/29 08:00:04;;;;;;;7.70;4.22;;;11.90;99.90;;;;;;5019793;28;20132;-73
2021/04/29 08:02:30;;;;;;;8.30;4.00;;;11.90;99.90;;;;;;5024877;28;20069;-74
2021/04/29 08:04:55;;;;;;;8.38;3.35;;;11.80;99.90;;;;;;5027715;28;20103;-74
2021/04/29 08:07:21;;;;;;;10.98;3.60;;;11.80;99.90;;;;;;5022506;28;20132;-74
2021/04/29 08:09:48;;;;;;;8.55;3.15;;;11.70;99.90;;;;;;5027928;28;20805;-73
2021/04/29 08:12:13;;;;;;;9.48;3.53;;;11.80;99.90;;;;;;5023112;28;20037;-74
2021/04/29 08:14:39;;;;;;;9.50;3.63;;;11.80;99.90;;;;;;5023247;28;20043;-74
2021/04/29 08:17:05;;;;;;;8.10;4.65;;;11.70;99.90;;;;;;5004447;28;20049;-74
2021/04/29 08:19:31;;;;;;;7.68;4.00;;;11.80;99.90;;;;;;5007176;28;20030;-74
2021/04/29 08:21:56;;;;;;;7.88;4.07;;;11.80;99.90;;;;;;5020652;28;20506;-74
2021/04/29 08:24:22;;;;;;;12.77;4.05;;;11.90;99.90;;;;;;5020084;28;20029;-74
2021/04/29 08:26:48;;;;;;;9.43;4.13;;;11.90;99.90;;;;;;5023677;28;20046;-74
2021/04/29 08:29:13;;;;;;;9.25;3.83;;;11.90;99.90;;;;;;5029297;28;20033;-74
2021/04/29 08:31:39;;;;;;;13.05;5.65;;;12.00;99.90;;;;;;5010114;28;20034;-74
2021/04/29 08:34:05;;;;;;;7.82;4.35;;;12.00;99.90;;;;;;5023073;28;20033;-74
2021/04/29 08:36:31;;;;;;;11.63;5.85;;;12.00;99.90;;;;;;5021755;28;20040;-74
2021/04/29 08:38:58;;;;;;;7.45;4.03;;;11.90;99.90;;;;;;5029584;28;20035;-74
2021/04/29 08:41:24;;;;;;;10.57;5.97;;;11.90;99.90;;;;;;5021850;28;20051;-74
2021/04/29 08:43:50;;;;;;;10.50;6.35;;;11.90;99.90;;;;;;5023577;28;20037;-74
2021/04/29 08:46:16;;;;;;;9.32;6.88;;;11.80;99.90;;;;;;5000315;28;20042;-74
2021/04/29 08:48:42;;;;;;;12.52;7.18;;;11.90;99.90;;;;;;5027275;28;20045;-74
2021/04/29 08:51:08;;;;;;;10.30;7.68;;;12.00;99.90;;;;;;5021180;28;20085;-74
2021/04/29 08:53:34;;;;;;;9.15;4.53;;;12.00;99.90;;;;;;5012500;28;20120;-74
2021/04/29 08:55:59;;;;;;;10.45;6.53;;;12.10;99.90;;;;;;5023842;28;20036;-74
2021/04/29 08:58:25;;;;;;;8.63;5.10;;;12.10;99.90;;;;;;5024343;28;20470;-74
2021/04/29 09:01:03;;;;;;;9.10;4.90;;;12.10;99.90;;;;;;5024814;28;20037;-74
2021/04/29 09:03:34;;;;;;;9.40;4.95;;;12.10;99.90;;;;;;5028510;28;20045;-74
2021/04/29 09:06:04;;;;;;;12.30;5.40;;;12.10;99.90;;;;;;5023267;28;20367;-74
2021/04/29 09:08:31;;;;;;;10.02;4.45;;;12.00;99.90;;;;;;5021367;28;20037;-74
2021/04/29 09:11:10;;;;;;;6.85;3.30;;;11.90;99.90;;;;;;5020816;28;20030;-74
2021/04/29 09:13:36;;;;;;;7.82;2.60;;;11.90;99.90;;;;;;5022405;28;20044;-74
2021/04/29 09:16:11;;;;;;;9.40;3.20;;;11.80;99.90;;;;;;5021630;28;20031;-74
2021/04/29 09:18:37;;;;;;;7.13;2.80;;;11.80;99.90;;;;;;5026631;28;20026;-74
2021/04/29 09:21:07;;;;;;;4.10;1.77;;;11.70;99.90;;;;;;5019243;28;20462;-74
2021/04/29 09:23:35;;;;;;;9.27;2.58;;;11.60;99.90;;;;;;5025758;28;20486;-74
2021/04/29 09:26:04;;;;;;;13.35;6.40;;;11.70;99.90;;;;;;5022487;28;20611;-74
2021/04/29 09:28:43;;;;;;;14.10;8.00;;;11.80;99.90;;;;;;5021966;28;20522;-74
2021/04/29 09:31:11;;;;;;;11.27;7.40;;;11.80;99.90;;;;;;5017563;28;20037;-74
2021/04/29 09:33:39;;;;;;;22.08;14.23;;;11.80;99.90;;;;;;5025311;28;20039;-74
2021/04/29 09:36:06;;;;;;;24.15;14.02;;;12.00;99.90;;;;;;5021387;28;20033;-74
2021/04/29 09:38:39;;;;;;;19.30;10.73;;;12.00;99.90;;;;;;5024931;28;20493;-74
2021/04/29 09:41:07;;;;;;;13.32;6.07;;;12.10;99.90;;;;;;5025421;28;20030;-75
2021/04/29 09:43:34;;;;;;;10.38;5.45;;;12.20;99.90;;;;;;5026918;28;20036;-74
2021/04/29 09:46:04;;;;;;;8.52;4.88;;;12.10;99.90;;;;;;5029955;28;20399;-74
2021/04/29 09:48:38;;;;;;;10.27;5.70;;;12.20;99.90;;;;;;5016568;28;20502;-74
2021/04/29 09:51:05;;;;;;;9.68;5.55;;;12.30;99.90;;;;;;5029954;28;20387;-74
2021/04/29 09:53:39;;;;;;;10.40;5.15;;;12.10;99.90;;;;;;5023986;28;20116;-74
2021/04/29 09:56:13;;;;;;;6.70;2.65;;;12.20;99.90;;;;;;5023338;28;20117;-74
2021/04/29 09:58:57;;;;;;;4.75;1.20;;;12.10;99.90;;;;;;5019807;28;20031;-74
2021/04/29 10:01:25;;;;;;;5.32;1.40;;;12.10;99.90;;;;;;5022975;28;20029;-74
2021/04/29 10:03:50;;;;;;;6.20;1.73;;;12.00;99.90;;;;;;5023318;28;20039;-74
2021/04/29 10:06:17;;;;;;;7.10;1.65;;;12.00;99.90;;;;;;5025105;28;20034;-74
2021/04/29 10:08:43;;;;;;;4.97;1.60;;;11.90;99.90;;;;;;5011465;28;20566;-74
2021/04/29 10:11:10;;;;;;;5.68;1.50;;;12.00;99.90;;;;;;5031844;28;20471;-74
2021/04/29 10:13:42;;;;;;;2.83;0.95;;;12.00;99.90;;;;;;5031318;28;20489;-74
2021/04/29 10:16:08;;;;;;;4.25;1.20;;;12.10;99.90;;;;;;5018051;28;20034;-74
2021/04/29 10:18:34;;;;;;;3.75;1.13;;;12.20;99.90;;;;;;5007194;28;20044;-74
2021/04/29 10:21:01;;;;;;;2.92;0.80;;;12.30;99.90;;;;;;5020299;28;20049;-74
2021/04/29 10:23:27;;;;;;;1.65;0.50;;;12.30;99.90;;;;;;5025263;28;20162;-74
2021/04/29 10:25:55;;;;;;;1.75;0.70;;;12.30;99.90;;;;;;5021355;28;20058;-74
2021/04/29 10:28:43;;;;;;;4.18;1.15;;;12.30;99.90;;;;;;5017719;28;20099;-74
2021/04/29 10:31:19;;;;;;;3.80;1.00;;;12.40;99.90;;;;;;5025925;28;20038;-73
2021/04/29 10:34:17;;;;;;;3.35;0.95;;;12.20;99.90;;;;;;5022362;28;20025;-74
2021/04/29 10:36:48;;;;;;;3.08;1.10;;;12.40;99.90;;;;;;4982673;28;20455;-74
2021/04/29 10:39:22;;;;;;;2.47;0.95;;;12.40;99.90;;;;;;5023951;28;20040;-74
2021/04/29 10:42:01;;;;;;;2.38;1.00;;;12.40;99.90;;;;;;5023705;28;20423;-74
2021/04/29 10:44:27;;;;;;;2.08;0.90;;;12.40;99.90;;;;;;5021522;28;20021;-74
2021/04/29 10:47:01;;;;;;;3.67;1.30;;;12.50;99.90;;;;;;5020632;28;20080;-74
2021/04/29 10:49:30;;;;;;;3.60;1.00;;;12.50;99.90;;;;;;5020182;28;20133;-74
2021/04/29 10:51:59;;;;;;;4.78;0.90;;;12.50;99.90;;;;;;5022378;28;20057;-74
2021/04/29 10:54:25;;;;;;;2.38;0.70;;;12.70;99.90;;;;;;5030907;28;20025;-74
2021/04/29 10:57:10;;;;;;;1.73;0.30;;;12.70;99.90;;;;;;5029249;28;20414;-74
2021/04/29 10:59:50;;;;;;;3.95;0.50;;;12.70;99.90;;;;;;5024892;28;20020;-74
2021/04/29 11:02:32;;;;;;;1.60;0.60;;;12.80;99.90;;;;;;5026050;28;20033;-74
2021/04/29 11:04:58;;;;;;;2.20;0.68;;;12.70;99.90;;;;;;5022953;28;20017;-74
2021/04/29 11:07:26;;;;;;;2.38;0.57;;;12.80;99.90;;;;;;5021025;28;20056;-74
2021/04/29 11:09:59;;;;;;;2.00;0.43;;;12.80;99.90;;;;;;5019469;28;20030;-74
2021/04/29 11:12:49;;;;;;;10.68;0.50;;;12.70;99.90;;;;;;5023850;28;20048;-74
2021/04/29 11:15:29;;;;;;;2.55;0.40;;;12.90;99.90;;;;;;5015597;28;20071;-74
2021/04/29 11:18:12;;;;;;;1.83;0.50;;;12.80;99.90;;;;;;5021808;28;20037;-74
2021/04/29 11:20:45;;;;;;;1.48;0.35;;;12.80;99.90;;;;;;5025633;28;20060;-74
2021/04/29 11:23:12;;;;;;;2.47;0.70;;;12.60;99.90;;;;;;5021493;28;20038;-74
2021/04/29 11:25:38;;;;;;;3.20;0.70;;;12.60;99.90;;;;;;5026315;28;20049;-74
2021/04/29 11:28:05;;;;;;;4.38;0.70;;;12.70;99.90;;;;;;5023140;28;20555;-74
2021/04/29 11:30:30;;;;;;;2.70;0.70;;;12.80;99.90;;;;;;5027268;28;20037;-74
2021/04/29 11:33:05;;;;;;;5.82;0.90;;;12.70;99.90;;;;;;5021893;28;20048;-74
2021/04/29 11:35:33;;;;;;;3.00;0.80;;;12.80;99.90;;;;;;5021610;28;20067;-74
2021/04/29 11:38:00;;;;;;;1.13;0.43;;;12.70;99.90;;;;;;5023909;28;20037;-74
2021/04/29 11:40:27;;;;;;;5.30;0.93;;;12.80;99.90;;;;;;5018256;28;20040;-74
2021/04/29 11:42:55;;;;;;;2.65;0.80;;;12.70;99.90;;;;;;5025487;28;20052;-74
2021/04/29 11:45:43;;;;;;;6.18;0.60;;;12.80;99.90;;;;;;5027754;28;20184;-74
2021/04/29 11:48:14;;;;;;;2.35;0.70;;;12.80;99.90;;;;;;5022167;28;20056;-74
2021/04/29 11:50:50;;;;;;;2.88;0.82;;;12.70;99.90;;;;;;5022093;28;20112;-74
2021/04/29 11:53:27;;;;;;;2.42;0.40;;;12.60;99.90;;;;;;5021389;28;20533;-74
2021/04/29 11:56:01;;;;;;;9.10;4.03;;;12.70;99.90;;;;;;5018948;28;20376;-74
2021/04/29 11:58:27;;;;;;;5.78;1.27;;;12.80;99.90;;;;;;5022496;28;20036;-74
2021/04/29 12:00:54;;;;;;;3.47;1.02;;;12.90;99.90;;;;;;5014157;28;20042;-74
2021/04/29 12:03:22;;;;;;;1.55;0.50;;;12.90;99.90;;;;;;5021218;28;20030;-74
2021/04/29 12:05:52;;;;;;;3.10;1.20;;;13.00;99.90;;;;;;5015706;28;20032;-74
2021/04/29 12:08:20;;;;;;;2.67;0.77;;;13.10;99.90;;;;;;5030494;28;20033;-74
2021/04/29 12:10:56;;;;;;;3.38;0.65;;;13.10;99.90;;;;;;5030521;28;20383;-74
2021/04/29 12:13:34;;;;;;;2.70;0.60;;;13.10;99.90;;;;;;5022232;28;20045;-74
2021/04/29 12:16:12;;;;;;;3.83;0.50;;;13.20;99.90;;;;;;5021478;28;20060;-74
2021/04/29 12:18:46;;;;;;;1.58;0.40;;;13.20;99.90;;;;;;5029442;28;20029;-74
2021/04/29 12:21:13;;;;;;;6.60;0.50;;;13.30;99.90;;;;;;5026386;28;20030;-74
2021/04/29 12:23:38;;;;;;;2.35;0.60;;;13.40;99.90;;;;;;5025117;28;20029;-74
2021/04/29 12:26:09;;;;;;;5.40;1.00;;;13.30;99.90;;;;;;5022440;28;20407;-74
2021/04/29 12:28:38;;;;;;;3.72;0.40;;;13.30;99.90;;;;;;5022050;28;20354;-74
2021/04/29 12:31:13;;;;;;;1.58;0.20;;;13.20;99.90;;;;;;5021763;28;20046;-74
2021/04/29 12:34:15;;;;;;;1.70;0.40;;;13.10;99.90;;;;;;5029289;28;20021;-74
2021/04/29 12:36:59;;;;;;;3.25;0.80;;;13.10;99.90;;;;;;4989642;28;20135;-74
2021/04/29 12:39:27;;;;;;;2.95;0.93;;;13.20;99.90;;;;;;5023687;28;20029;-74
2021/04/29 12:41:54;;;;;;;8.23;1.95;;;13.30;99.90;;;;;;5006406;28;20069;-74
2021/04/29 12:44:32;;;;;;;4.13;1.25;;;13.30;99.90;;;;;;5024424;28;20035;-74
2021/04/29 12:46:57;;;;;;;3.88;0.80;;;13.30;99.90;;;;;;5021566;28;20033;-74
2021/04/29 12:49:24;;;;;;;3.03;0.60;;;13.20;99.90;;;;;;5026195;28;20044;-74